Henrique Viana

Scout - Corinthians
3 Dec 2028
Sunday
Process

Personality

Adaptability (13) Ambition (6) Controversy (1) Loyalty (5) Pressure (16) Professionalism (14) Sportsmanship (16) Temperament (2)

Profile

Coaching Style Democratic
License Continental C
Determination 15
Man Management 12
Motivating 8
Discipline 6
Job Satisfaction
100%
Fatigue
0%
Role Scout
Wage 47.4K p/w
Contract 14.03.2030

Performance

Behaviour Good
Training Effectiveness
52%
Player Development
30%
Injury Prevention
30%
Tactical Implementation
40%

Recent Events

Attended a recruitment meeting now
Attended a recruitment meeting now
Attended a recruitment meeting now
Recommended a transfer target now
Recommended a transfer target now
Recommended a transfer target now
Recommended a transfer target now
Presented a dossier to the board now

Currently Monitoring

94
Player Club Status Ability Confidence Watched Last Observed Latest Vote
Dango Ouattara Middlesbrough Active 156 / 164 40% 1 02.12.2028 -
Jayden Danns Bradford City Active 147 / 137 40% 1 02.12.2028 -
Júlio César Ceará Negotiating 113 / 96 62% 1 01.12.2028 -
Kike Saverio Vitória Active 96 / 104 62% 1 17.07.2028 -
Neco Williams Wrexham Active 140 / 159 40% 1 11.07.2028 -
Moisés Caicedo Chelsea Active 183 / 171 40% 1 11.07.2028 -
Nuno Moreira Vasco da Gama Active 142 / 130 62% 1 10.07.2028 Approve
Antoine Griezmann Cruzeiro Active 137 / 152 62% 1 19.06.2028 Approve
Abdoul Ouattara Port Vale Active 126 / 149 40% 1 19.06.2028 -
Carlos Alcaraz Stoke City Active 151 / 147 40% 1 19.06.2028 -
Andrey Santa Cruz Active 109 / 109 62% 1 06.06.2028 Approve
Matheus Cunha Manchester United Active 155 / 172 40% 3 01.06.2028 -
Charles De Ketelaere Tottenham Active 169 / 159 40% 1 01.06.2028 -
Giacomo Raspadori Atalanta Active 142 / 158 40% 1 31.05.2028 -
Welington Southampton Active 142 / 130 40% 1 31.05.2028 -
Lima Fluminense Active 134 / 134 62% 1 02.12.2027 Approve
Martín Zubimendi Arsenal Active 170 / 160 40% 1 30.11.2027 -
Luciano Juba Bahia Active 143 / 137 40% 1 30.11.2027 -
Taty Castellanos West Ham United Active 158 / 134 40% 2 30.05.2027 -
Federico Chiesa Liverpool Active 154 / 154 40% 2 29.05.2027 -
Christian Pulisic AC Milan Active 171 / 162 40% 1 29.05.2027 -
Thiago Brentford Active 133 / 154 40% 3 27.05.2027 -
Emanuel Emegha Chelsea Active 129 / 146 40% 2 27.05.2027 -
Joe Gelhardt Hull City Active 136 / 139 40% 2 26.05.2027 -
Gabriel Martinelli Arsenal Active 150 / 161 40% 2 23.05.2027 -
Mohamed-Ali Cho Hull City Active 152 / 124 40% 3 22.05.2027 -
Manu Koné AS Roma Active 160 / 166 40% 3 19.05.2027 -
Ismaïla Sarr Crystal Palace Active 164 / 158 40% 3 16.05.2027 -
Nicolas Jackson Aston Villa Active 153 / 150 40% 5 15.05.2027 -
Isaiah Jones Luton Town Active 115 / 113 40% 1 14.05.2027 -
Hugo Ekitiké Liverpool Active 177 / 161 40% 3 13.05.2027 -
Kevin Fulham Active 135 / 154 40% 1 12.05.2027 -
Derensili Sanches Fernandes Huddersfield Town Active 140 / 121 40% 3 11.05.2027 -
Marcus Rashford Manchester United Active 150 / 164 40% 3 10.05.2027 -
Dominic Solanke Tottenham Active 161 / 153 40% 1 10.05.2027 -
Iliman N'Diaye Everton Active 145 / 146 40% 2 09.05.2027 -
Noni Madueke Arsenal Active 166 / 155 40% 1 09.05.2027 -
Xavi Simons Tottenham Active 172 / 153 40% 2 07.05.2027 -
Rodrigo Muniz Fulham Active 132 / 136 40% 1 28.04.2027 -
Brooke Norton-Cuffy Hull City Active 123 / 142 40% 2 13.04.2027 -
Jackson Muleka Konyaspor Active 130 / 129 40% 2 13.04.2027 -
Jason Knight Bristol City Active 127 / 129 40% 2 11.04.2027 -
Steven Bergwijn Al-Ittihad Active 156 / 156 40% 3 10.04.2027 -
Andrea Pinamonti Lazio Active 147 / 131 40% 1 02.04.2027 -
Ilyas Ansah Hull City Active 136 / 130 40% 1 01.04.2027 -
Oli McBurnie Hull City Active 155 / 122 40% 1 29.03.2027 -
Gianluca Prestianni Benfica Active 137 / 128 40% 2 27.03.2027 -
Che Adams Torino Active 131 / 149 40% 1 24.03.2027 -
Lorenzo Colombo Genoa Active 154 / 132 40% 1 21.03.2027 -
Enzo Barrenechea Benfica Active 150 / 150 40% 5 20.03.2027 -
Rafik Guitane Estoril Praia Active 117 / 126 40% 2 20.03.2027 -
Ricardo Horta Braga Active 150 / 159 40% 2 18.03.2027 -
Santi García Gil Vicente Active 134 / 135 40% 1 14.03.2027 -
Matheuzinho Vitória Active 135 / 124 51% 1 01.12.2026 -
Sorriso Famalicao Active 136 / 135 40% 4 27.11.2026 -
Zé Leite Moreirense Active 106 / 130 40% 1 26.11.2026 -
Henrique Araújo Casa Pia Active 114 / 119 40% 2 25.11.2026 -
Tamble Monteiro Rio Ave Active 115 / 126 40% 3 23.11.2026 -
Samuel Lino Flamengo Active 145 / 147 40% 1 21.11.2026 Needs More Info
Jorge Aguirre Torreense Active 110 / 103 40% 1 19.11.2026 -
Korede Osundina Casa Pia Active 127 / 123 40% 1 19.11.2026 -
Pau Víctor Braga Active 123 / 131 40% 1 18.11.2026 -
William Gomes Porto Active 144 / 151 40% 1 16.11.2026 -
Alfonso Trezza Arouca Active 121 / 136 40% 2 13.11.2026 -
Isidro Pitta Bragantino Active 135 / 118 40% 1 13.11.2026 -
Jens Petter Hauge Bodo/Glimt Active 151 / 143 40% 2 07.11.2026 -
Yoane Wissa Newcastle United Active 126 / 150 40% 1 07.11.2026 -
Brais Méndez RC Lens Active 160 / 148 40% 1 05.11.2026 -
Samuel Dahl Benfica Active 135 / 134 40% 1 05.11.2026 -
Gustavo Silva Vitoria Guimaraes Active 118 / 113 40% 2 04.11.2026 -
Leon Goretzka Aston Villa Active 174 / 149 40% 1 01.11.2026 -
Vinícius Lopes Santa Clara Active 101 / 124 40% 2 28.10.2026 -
Negueba Mirassol Active 115 / 124 40% 1 26.10.2026 Needs More Info
Wessam Abou Ali Columbus Crew Active 132 / 141 40% 2 13.10.2026 -
Fredrik Aursnes Benfica Active 142 / 162 40% 1 11.10.2026 -
Yanis Begraoui Estoril Praia Active 133 / 135 40% 1 08.10.2026 -
Figueiredo Alverca Active 136 / 133 40% 2 07.10.2026 -
Kévin Denkey FC Cincinnati Active 125 / 114 40% 1 07.10.2026 -
Martín Ojeda Orlando City Active 116 / 124 40% 1 05.10.2026 -
Tyrese Campbell Sheffield United Active 135 / 111 40% 1 05.10.2026 -
Gabriel Silva Braga Active 130 / 142 40% 1 29.09.2026 -
Ianis Stoica Estrela da Amadora Active 121 / 102 40% 1 26.09.2026 -
Talles Magno New York City Active 113 / 145 40% 1 24.09.2026 -
Roberto Fernández Braga Active 129 / 152 40% 1 24.09.2026 -
Alejandro Zendejas Club America Active 147 / 141 40% 1 20.09.2026 -
Marcel Ruiz Crystal Palace Active 129 / 147 40% 1 18.09.2026 -
Ramiro Ruiz Rodríguez Atlético Tucumán Active 123 / 122 40% 1 16.09.2026 -
Andreas Schjelderup Benfica Active 137 / 144 40% 2 11.09.2026 -
Arthur Flamengo Active 142 / 137 40% 1 09.09.2026 -
Cheikh Sabaly Vancouver Whitecaps Active 117 / 117 40% 1 07.09.2026 -
Heorhii Sudakov Benfica Active 123 / 138 40% 1 01.09.2026 -
Hwang In-Beom Porto Active 157 / 149 40% 1 20.08.2026 -
Diogo Dalot Manchester United Active 130 / 147 40% 1 19.08.2026 -
Zeno Debast Sporting CP Active 119 / 143 40% 1 01.08.2026 -